Time;durP1;ratioP1;P1;durP2;ratioP2;P2;SDS_P1;SDS_P2;PMS_P1;PMS_P2;Temp;Humidity;BMP_temperature;BMP_pressure;BME280_temperature;BME280_humidity;BME280_pressure;Samples;Min_cycle;Max_cycle;Signal;HPM_P1;HPM_P2
2022/12/22 03:26:35;;;;;;;13.50;10.32;;;;;;;9.64;100.00;100200.22;4981851;28;20050;-68
2022/12/22 03:29:01;;;;;;;11.60;10.13;;;;;;;9.61;100.00;100195.28;4991228;28;20077;-68
2022/12/22 03:31:27;;;;;;;13.88;10.85;;;;;;;9.63;100.00;100202.97;4982452;28;20092;-67
2022/12/22 03:33:54;;;;;;;15.15;11.48;;;;;;;9.63;100.00;100197.75;4993738;28;20062;-68
2022/12/22 03:36:20;;;;;;;15.38;11.88;;;;;;;9.58;100.00;100192.94;4985013;28;20061;-67
2022/12/22 03:38:47;;;;;;;13.65;10.43;;;;;;;9.63;100.00;100185.47;4980316;28;20054;-67
2022/12/22 03:46:29;;;;;;;11.68;8.63;;;;;;;9.66;100.00;100182.53;4982017;28;20479;-67
2022/12/22 03:46:44;;;;;;;10.95;9.05;;;;;;;9.69;100.00;100169.13;4982191;28;20056;-67
2022/12/22 03:49:11;;;;;;;13.70;10.27;;;;;;;9.67;100.00;100170.25;4975538;28;20594;-67
2022/12/22 03:51:41;;;;;;;12.45;8.88;;;;;;;9.71;100.00;100174.22;4982337;28;20201;-67
2022/12/22 03:54:08;;;;;;;11.73;9.40;;;;;;;9.71;100.00;100163.72;4975607;28;20066;-67
2022/12/22 03:56:35;;;;;;;13.90;10.20;;;;;;;9.69;100.00;100165.69;4986915;28;20146;-67
2022/12/22 03:59:02;;;;;;;11.77;9.48;;;;;;;9.70;100.00;100168.16;4982755;28;20046;-67
2022/12/22 04:01:29;;;;;;;12.80;10.80;;;;;;;9.72;100.00;100167.16;4983462;28;21187;-67
2022/12/22 04:03:55;;;;;;;12.20;9.98;;;;;;;9.72;100.00;100164.53;4983564;28;20137;-67
2022/12/22 04:06:22;;;;;;;13.32;10.48;;;;;;;9.72;100.00;100160.13;4981222;28;20053;-67
2022/12/22 04:08:48;;;;;;;14.52;11.23;;;;;;;9.71;100.00;100150.63;4988218;28;20473;-67
2022/12/22 04:14:01;;;;;;;13.98;11.20;;;;;;;9.70;100.00;100151.59;4985800;28;20043;-67
2022/12/22 04:16:28;;;;;;;14.75;10.75;;;;;;;9.71;100.00;100148.00;4976661;28;20061;-67
2022/12/22 04:18:55;;;;;;;13.50;10.80;;;;;;;9.69;100.00;100139.50;4987706;28;20081;-67
2022/12/22 04:21:22;;;;;;;14.63;10.98;;;;;;;9.68;100.00;100143.06;4988498;28;20058;-67
2022/12/22 04:23:52;;;;;;;15.32;11.38;;;;;;;9.70;100.00;100136.72;4987537;28;20050;-67
2022/12/22 04:26:20;;;;;;;15.65;10.70;;;;;;;9.72;100.00;100127.88;4986065;28;20054;-67
2022/12/22 04:28:47;;;;;;;14.50;11.93;;;;;;;9.72;100.00;100128.69;4970090;28;20469;-67
2022/12/22 04:31:13;;;;;;;13.38;9.98;;;;;;;9.73;100.00;100125.09;4989932;28;20490;-67
2022/12/22 04:33:40;;;;;;;12.30;10.07;;;;;;;9.77;100.00;100129.06;5003703;28;20094;-67
2022/12/22 04:36:06;;;;;;;15.07;11.70;;;;;;;9.77;100.00;100130.84;5003623;28;20047;-67
2022/12/22 04:38:34;;;;;;;15.15;11.18;;;;;;;9.77;100.00;100142.16;4997111;28;20132;-67
2022/12/22 04:41:00;;;;;;;16.05;11.52;;;;;;;9.76;100.00;100148.38;4985602;28;20062;-68
2022/12/22 04:43:26;;;;;;;15.13;11.75;;;;;;;9.77;100.00;100151.81;4984124;28;20049;-68
2022/12/22 04:45:54;;;;;;;15.80;12.07;;;;;;;9.81;100.00;100168.84;4973770;28;20042;-67
2022/12/22 04:48:22;;;;;;;15.23;11.97;;;;;;;9.81;100.00;100169.66;4989636;28;20081;-67
2022/12/22 04:50:50;;;;;;;14.77;11.60;;;;;;;9.79;100.00;100171.63;4985574;28;20284;-67
2022/12/22 04:53:16;;;;;;;14.13;10.77;;;;;;;9.79;100.00;100170.81;4986091;28;20050;-67
2022/12/22 04:55:47;;;;;;;17.10;11.05;;;;;;;9.81;100.00;100159.19;4985991;28;20097;-67
2022/12/22 04:58:14;;;;;;;13.57;10.73;;;;;;;9.77;100.00;100167.53;4974259;28;20165;-67
2022/12/22 05:00:41;;;;;;;13.65;10.13;;;;;;;9.77;100.00;100165.72;4990608;28;20058;-67
2022/12/22 05:03:08;;;;;;;16.55;11.63;;;;;;;9.79;100.00;100149.84;4988466;28;20054;-67
2022/12/22 05:05:35;;;;;;;15.88;11.77;;;;;;;9.78;100.00;100143.81;4990457;28;20153;-67
2022/12/22 05:08:02;;;;;;;15.75;11.80;;;;;;;9.82;100.00;100154.75;4984020;28;20058;-67
2022/12/22 05:10:29;;;;;;;16.20;12.63;;;;;;;9.80;100.00;100156.72;4984441;28;20051;-67
2022/12/22 05:12:56;;;;;;;15.25;11.55;;;;;;;9.81;100.00;100155.75;4979712;28;20701;-67
2022/12/22 05:15:31;;;;;;;15.20;11.77;;;;;;;9.85;100.00;100157.88;4988048;28;20053;-67
2022/12/22 05:17:59;;;;;;;17.02;12.05;;;;;;;9.82;100.00;100150.34;4989111;28;20585;-67
2022/12/22 05:20:26;;;;;;;16.40;11.60;;;;;;;9.81;100.00;100153.13;4971565;28;20054;-67
2022/12/22 05:22:53;;;;;;;13.02;11.00;;;;;;;9.80;100.00;100154.09;4986357;28;20046;-67
2022/12/22 05:25:20;;;;;;;14.52;10.77;;;;;;;9.79;100.00;100160.31;4980553;28;20119;-67
2022/12/22 05:27:49;;;;;;;13.32;10.52;;;;;;;9.81;100.00;100158.38;4972522;28;20108;-67
2022/12/22 05:30:16;;;;;;;;;;;;;;;9.83;100.00;100164.28;4961315;28;20050;-67
2022/12/22 05:32:43;;;;;;;12.07;9.52;;;;;;;9.80;100.00;100165.41;4989784;28;19973;-67
2022/12/22 05:35:09;;;;;;;15.20;10.95;;;;;;;9.78;100.00;100163.91;4984695;28;20050;-67
2022/12/22 05:37:36;;;;;;;14.65;10.68;;;;;;;9.76;100.00;100158.00;4986550;28;20080;-67
2022/12/22 05:40:03;;;;;;;19.77;13.25;;;;;;;9.80;100.00;100162.78;4981952;28;20426;-67
2022/12/22 05:42:35;;;;;;;16.42;12.20;;;;;;;9.78;100.00;100167.38;4983117;28;20061;-67
2022/12/22 05:45:08;;;;;;;17.85;12.57;;;;;;;9.81;100.00;100158.38;4987316;28;20052;-67
2022/12/22 05:47:35;;;;;;;20.67;13.65;;;;;;;9.78;100.00;100158.66;4985121;28;20058;-67
2022/12/22 05:50:01;;;;;;;21.27;13.85;;;;;;;9.80;100.00;100157.56;4993570;28;20086;-67
2022/12/22 05:52:28;;;;;;;22.67;14.35;;;;;;;9.78;100.00;100159.50;4985680;28;20865;-67
2022/12/22 05:54:54;;;;;;;21.02;14.20;;;;;;;9.79;100.00;100153.28;4980637;28;20050;-67
2022/12/22 05:57:21;;;;;;;22.05;14.35;;;;;;;9.81;100.00;100168.84;4991740;28;20058;-67
2022/12/22 05:59:48;;;;;;;22.92;14.48;;;;;;;9.80;100.00;100167.19;4987961;28;20054;-67
2022/12/22 06:02:15;;;;;;;21.63;15.20;;;;;;;9.78;100.00;100171.78;4996557;28;20050;-67
2022/12/22 06:04:41;;;;;;;23.27;14.45;;;;;;;9.76;100.00;100173.72;4997746;28;20081;-67
2022/12/22 06:07:08;;;;;;;17.75;12.35;;;;;;;9.77;100.00;100176.19;4985457;28;20047;-67
2022/12/22 06:09:34;;;;;;;25.27;15.95;;;;;;;9.73;100.00;100187.16;4991044;28;20058;-67
2022/12/22 06:12:01;;;;;;;22.23;14.32;;;;;;;9.78;100.00;100196.19;4980268;28;20407;-67
2022/12/22 06:14:28;;;;;;;24.02;15.35;;;;;;;9.74;100.00;100202.72;4981526;28;20045;-67
2022/12/22 06:16:54;;;;;;;20.85;13.73;;;;;;;9.74;100.00;100197.47;4983209;28;20054;-67
2022/12/22 06:19:21;;;;;;;23.88;15.00;;;;;;;9.74;100.00;100200.09;4994972;28;20137;-67
2022/12/22 06:21:47;;;;;;;25.90;15.88;;;;;;;9.75;100.00;100203.53;4988455;28;20113;-67
2022/12/22 06:24:13;;;;;;;22.88;14.98;;;;;;;9.75;100.00;100217.44;4985125;28;20050;-67
2022/12/22 06:26:40;;;;;;;24.13;16.15;;;;;;;9.74;100.00;100214.97;4988347;28;20590;-67
2022/12/22 06:29:06;;;;;;;24.17;14.93;;;;;;;9.72;100.00;100220.34;4983714;28;20061;-67
2022/12/22 06:31:33;;;;;;;24.60;15.20;;;;;;;9.67;100.00;100226.06;4989005;28;20081;-67
2022/12/22 06:33:59;;;;;;;24.63;15.23;;;;;;;9.69;100.00;100233.78;4978998;28;20082;-67
2022/12/22 06:36:26;;;;;;;23.08;14.57;;;;;;;9.68;100.00;100234.75;4968073;28;20395;-67
2022/12/22 06:38:52;;;;;;;25.17;15.35;;;;;;;9.67;100.00;100235.72;4984993;28;20113;-67
2022/12/22 06:43:07;;;;;;;27.17;15.27;;;;;;;9.63;100.00;100239.63;4974482;28;20074;-67
2022/12/22 06:44:05;;;;;;;26.42;15.20;;;;;;;9.64;100.00;100241.25;4979549;28;20052;-67
2022/12/22 06:46:31;;;;;;;29.15;14.55;;;;;;;9.58;100.00;100236.66;4976881;28;20055;-67
2022/12/22 06:48:58;;;;;;;23.73;14.18;;;;;;;9.61;100.00;100244.22;4993877;28;20054;-67
2022/12/22 06:51:24;;;;;;;26.52;15.82;;;;;;;9.60;100.00;100248.59;4992708;28;20054;-67
2022/12/22 06:53:51;;;;;;;26.13;15.23;;;;;;;9.58;100.00;100245.31;4995020;28;20046;-67
2022/12/22 06:56:17;;;;;;;22.98;14.48;;;;;;;9.63;100.00;100252.72;4991841;28;20470;-67
2022/12/22 06:58:43;;;;;;;25.13;15.27;;;;;;;9.65;100.00;100251.59;4981135;28;20547;-67
2022/12/22 07:01:10;;;;;;;25.90;14.52;;;;;;;9.64;100.00;100260.44;4983259;28;20133;-67
2022/12/22 07:03:36;;;;;;;21.75;13.00;;;;;;;9.63;100.00;100260.59;4992516;28;20057;-67
2022/12/22 07:06:03;;;;;;;23.25;13.10;;;;;;;9.64;100.00;100264.84;4985415;28;20129;-67
2022/12/22 07:08:29;;;;;;;23.75;13.57;;;;;;;9.67;100.00;100262.72;4979590;28;20577;-67
2022/12/22 07:10:59;;;;;;;22.25;12.25;;;;;;;9.67;100.00;100249.63;4976165;28;20129;-67
2022/12/22 07:13:30;;;;;;;20.58;12.60;;;;;;;9.70;100.00;100253.72;4981893;28;20060;-67
2022/12/22 07:15:57;;;;;;;19.73;12.52;;;;;;;9.70;100.00;100257.19;4984262;28;20054;-67
2022/12/22 07:18:29;;;;;;;22.52;12.75;;;;;;;9.74;100.00;100259.50;4984862;28;20050;-67
2022/12/22 07:20:55;;;;;;;;;;;;;;;9.70;100.00;100270.28;4979901;28;20143;-67
2022/12/22 07:23:22;;;;;;;19.98;11.70;;;;;;;9.67;100.00;100272.38;4987810;28;19985;-67
2022/12/22 07:25:48;;;;;;;22.73;11.90;;;;;;;9.56;100.00;100270.84;4979542;28;20042;-67
2022/12/22 07:28:15;;;;;;;21.42;12.00;;;;;;;9.57;100.00;100269.06;4987550;28;20046;-67
2022/12/22 07:30:47;;;;;;;19.48;12.48;;;;;;;9.58;100.00;100281.16;4981555;28;20061;-67
2022/12/22 07:33:14;;;;;;;21.17;12.05;;;;;;;9.50;100.00;100282.72;4995821;28;20065;-67
2022/12/22 07:35:40;;;;;;;19.25;11.32;;;;;;;9.45;100.00;100292.03;4986713;28;20133;-67
2022/12/22 07:38:07;;;;;;;20.27;11.77;;;;;;;9.48;100.00;100296.97;4980320;28;20096;-67
2022/12/22 07:40:33;;;;;;;18.92;11.70;;;;;;;9.49;100.00;100299.44;4991432;28;20085;-67
2022/12/22 07:43:07;;;;;;;19.48;10.82;;;;;;;9.49;100.00;100317.75;4987188;28;20127;-67
2022/12/22 07:45:33;;;;;;;20.05;11.30;;;;;;;9.50;100.00;100321.19;4993707;28;20148;-67
2022/12/22 07:50:23;;;;;;;19.80;11.88;;;;;;;9.46;100.00;100325.91;4984994;28;20517;-67
2022/12/22 07:50:47;;;;;;;18.42;10.85;;;;;;;9.38;100.00;100333.69;4991015;28;20054;-67
2022/12/22 07:53:14;;;;;;;17.92;10.77;;;;;;;9.40;100.00;100341.41;4995784;28;20434;-67
2022/12/22 07:55:40;;;;;;;18.35;10.82;;;;;;;9.39;100.00;100350.22;4976127;28;20106;-67
2022/12/22 07:58:07;;;;;;;16.58;10.20;;;;;;;9.38;100.00;100345.97;4985216;28;20046;-67
2022/12/22 08:00:33;;;;;;;18.50;10.60;;;;;;;9.37;100.00;100350.38;4981000;28;20054;-66
2022/12/22 08:03:01;;;;;;;20.05;11.68;;;;;;;9.31;100.00;100366.69;4989142;28;20050;-67
2022/12/22 08:05:28;;;;;;;20.05;12.02;;;;;;;9.28;100.00;100367.78;4969893;28;20563;-67
2022/12/22 08:07:54;;;;;;;21.15;13.27;;;;;;;9.23;100.00;100371.81;4983824;28;20060;-67
2022/12/22 08:10:20;;;;;;;19.77;11.43;;;;;;;9.26;100.00;100376.78;4997726;28;20045;-67
2022/12/22 08:12:47;;;;;;;23.83;14.00;;;;;;;9.27;100.00;100375.78;4979317;28;20050;-66
2022/12/22 08:15:13;;;;;;;22.58;13.00;;;;;;;9.28;100.00;100380.88;4988281;28;20046;-67
2022/12/22 08:17:40;;;;;;;23.80;14.00;;;;;;;9.29;100.00;100379.94;4981834;28;20053;-67
2022/12/22 08:20:07;;;;;;;28.23;14.80;;;;;;;9.33;100.00;100392.69;4987374;28;20062;-67
2022/12/22 08:22:33;;;;;;;23.33;12.95;;;;;;;9.35;100.00;100391.59;4977205;28;20112;-67
2022/12/22 08:25:00;;;;;;;25.88;13.63;;;;;;;9.28;100.00;100382.69;4980631;28;20891;-68
2022/12/22 08:27:41;;;;;;;25.95;14.80;;;;;;;9.36;100.00;100395.84;4986621;28;20500;-68
2022/12/22 08:30:09;;;;;;;27.02;13.75;;;;;;;9.34;100.00;100394.34;4984798;28;20124;-68
2022/12/22 08:32:37;;;;;;;26.58;14.05;;;;;;;9.34;100.00;100400.41;4996809;28;20058;-66
2022/12/22 08:35:05;;;;;;;26.60;14.40;;;;;;;9.36;100.00;100395.84;4976280;28;20697;-67
2022/12/22 08:37:39;;;;;;;26.75;14.85;;;;;;;9.40;100.00;100399.00;4983124;28;20054;-67
2022/12/22 08:40:11;;;;;;;24.90;14.60;;;;;;;9.39;100.00;100408.66;4979119;28;20184;-67
2022/12/22 08:42:38;;;;;;;27.20;14.73;;;;;;;9.36;100.00;100403.69;4990674;28;20427;-67
2022/12/22 08:45:08;;;;;;;24.40;13.45;;;;;;;9.36;100.00;100406.31;4989380;28;20463;-68
2022/12/22 08:47:34;;;;;;;30.88;15.85;;;;;;;9.35;100.00;100409.91;4989226;28;20626;-67
2022/12/22 08:50:00;;;;;;;34.00;16.65;;;;;;;9.36;100.00;100418.59;4968831;28;20223;-67
2022/12/22 08:52:27;;;;;;;29.38;16.15;;;;;;;9.38;100.00;100414.84;4972349;28;20050;-68
2022/12/22 08:54:53;;;;;;;28.40;15.38;;;;;;;9.31;100.00;100426.91;4986511;28;20056;-67
2022/12/22 08:57:20;;;;;;;30.88;15.68;;;;;;;9.31;100.00;100429.50;4984562;28;20050;-67
2022/12/22 08:59:47;;;;;;;33.10;16.00;;;;;;;9.28;100.00;100440.25;4988682;28;20046;-67
2022/12/22 09:02:13;;;;;;;32.53;15.52;;;;;;;9.24;100.00;100447.59;5001157;28;20050;-67
2022/12/22 09:04:40;;;;;;;29.67;15.38;;;;;;;9.23;100.00;100445.94;4986074;28;20624;-67
2022/12/22 09:07:06;;;;;;;29.65;15.88;;;;;;;9.21;100.00;100452.28;4991941;28;20087;-68
2022/12/22 09:09:33;;;;;;;30.38;16.08;;;;;;;9.17;100.00;100456.97;4991816;28;20058;-68
2022/12/22 09:12:01;;;;;;;33.20;15.70;;;;;;;9.14;100.00;100459.91;4993660;28;20786;-67
2022/12/22 09:14:29;;;;;;;29.98;15.77;;;;;;;9.17;100.00;100464.81;4986854;28;20049;-67
2022/12/22 09:16:55;;;;;;;30.27;15.10;;;;;;;9.15;100.00;100479.03;4999661;28;20518;-67
2022/12/22 09:19:22;;;;;;;33.00;15.98;;;;;;;9.18;100.00;100481.38;4989681;28;20046;-67
2022/12/22 09:21:48;;;;;;;29.83;15.40;;;;;;;9.20;100.00;100492.53;4988937;28;20081;-67
2022/12/22 09:24:15;;;;;;;33.65;16.50;;;;;;;9.21;100.00;100487.16;4996049;28;20057;-67
2022/12/22 09:26:41;;;;;;;33.95;15.88;;;;;;;9.20;100.00;100488.09;4993134;28;20050;-68
2022/12/22 09:29:08;;;;;;;34.42;15.18;;;;;;;9.19;100.00;100490.84;4992810;28;20056;-67
2022/12/22 09:31:35;;;;;;;33.70;15.95;;;;;;;9.17;100.00;100498.84;4981914;28;20598;-67
2022/12/22 09:34:01;;;;;;;29.67;15.07;;;;;;;9.16;100.00;100504.25;4987666;28;20053;-67
2022/12/22 09:36:30;;;;;;;36.38;16.38;;;;;;;9.17;100.00;100508.50;4995553;28;20045;-67
2022/12/22 09:38:56;;;;;;;33.45;15.13;;;;;;;9.07;100.00;100513.78;4996460;28;20136;-67
2022/12/22 09:41:33;;;;;;;31.00;16.38;;;;;;;9.07;100.00;100517.19;4998464;28;20128;-67
2022/12/22 09:44:34;;;;;;;32.80;14.57;;;;;;;9.03;100.00;100515.84;4986262;28;20080;-67
2022/12/22 09:47:09;;;;;;;34.08;15.35;;;;;;;8.97;100.00;100511.19;4969136;28;20133;-67
2022/12/22 09:49:35;;;;;;;37.45;16.80;;;;;;;8.96;100.00;100513.94;4979787;28;20050;-67
2022/12/22 09:52:03;;;;;;;39.45;15.77;;;;;;;8.95;100.00;100520.16;4967163;28;20055;-67
2022/12/22 09:54:29;;;;;;;33.92;15.38;;;;;;;8.96;100.00;100511.31;4984177;28;20411;-67
2022/12/22 09:56:56;;;;;;;38.15;16.38;;;;;;;8.94;100.00;100513.25;4988418;28;20082;-67
2022/12/22 09:59:27;;;;;;;34.00;15.70;;;;;;;8.78;100.00;100519.09;4981372;28;20303;-67
2022/12/22 10:02:21;;;;;;;34.78;15.02;;;;;;;8.76;100.00;100527.13;4980869;28;20134;-67
2022/12/22 10:05:27;;;;;;;31.45;13.57;;;;;;;8.78;100.00;100519.94;4977877;28;20133;-67
2022/12/22 10:07:59;;;;;;;31.95;13.23;;;;;;;8.67;100.00;100528.78;4975520;28;20109;-67
2022/12/22 10:10:28;;;;;;;35.13;13.20;;;;;;;8.68;100.00;100537.44;4983191;28;20317;-67
2022/12/22 10:12:58;;;;;;;35.42;12.90;;;;;;;8.68;100.00;100527.81;4982681;28;20058;-67
2022/12/22 10:15:26;;;;;;;32.83;13.02;;;;;;;8.60;100.00;100526.84;4986539;28;20046;-67
2022/12/22 10:18:08;;;;;;;33.65;12.95;;;;;;;8.51;100.00;100533.75;4981512;28;20049;-67
2022/12/22 10:20:37;;;;;;;37.10;11.50;;;;;;;8.31;100.00;100533.75;4984207;28;20116;-68
2022/12/22 10:23:11;;;;;;;27.30;11.27;;;;;;;8.23;100.00;100531.00;4984778;28;20279;-67
2022/12/22 10:25:44;;;;;;;28.65;11.48;;;;;;;8.19;100.00;100532.22;4969228;28;20047;-67
2022/12/22 10:28:42;;;;;;;27.80;11.20;;;;;;;8.12;100.00;100546.81;4985569;28;20054;-67
2022/12/22 10:31:26;;;;;;;26.20;10.38;;;;;;;8.06;100.00;100547.38;4970735;28;20137;-67
2022/12/22 10:33:56;;;;;;;28.42;11.05;;;;;;;8.11;100.00;100551.22;4987063;28;20415;-68
2022/12/22 10:36:29;;;;;;;28.15;10.70;;;;;;;8.19;100.00;100560.97;4975356;28;20085;-67
2022/12/22 10:39:04;;;;;;;29.42;11.85;;;;;;;8.20;100.00;100567.84;4983066;28;20052;-67
2022/12/22 10:41:44;;;;;;;29.92;11.20;;;;;;;8.24;100.00;100576.25;4976557;28;20181;-67
2022/12/22 10:44:17;;;;;;;30.00;11.30;;;;;;;8.26;100.00;100572.53;4978714;28;20050;-67
2022/12/22 10:46:49;;;;;;;22.73;9.95;;;;;;;8.23;100.00;100570.19;4982561;28;20522;-66
2022/12/22 10:49:24;;;;;;;23.80;10.10;;;;;;;8.19;100.00;100565.38;4985471;28;20064;-67
2022/12/22 10:52:09;;;;;;;28.20;11.02;;;;;;;8.00;100.00;100559.19;4979626;28;20104;-67
2022/12/22 10:54:36;;;;;;;30.52;10.10;;;;;;;7.97;100.00;100564.66;4986196;28;20435;-67
2022/12/22 10:57:24;;;;;;;21.85;9.25;;;;;;;8.05;100.00;100569.22;4979114;28;20141;-67
2022/12/22 11:00:00;;;;;;;27.02;9.77;;;;;;;8.16;100.00;100566.47;4972740;28;20074;-67
2022/12/22 11:02:31;;;;;;;27.60;9.90;;;;;;;8.18;100.00;100572.38;4989047;28;20054;-67
2022/12/22 11:05:02;;;;;;;26.23;9.75;;;;;;;8.23;100.00;100575.44;4972551;28;20652;-68
2022/12/22 11:07:32;;;;;;;21.35;9.50;;;;;;;8.28;100.00;100578.44;4982001;28;20050;-67
2022/12/22 11:09:58;;;;;;;21.67;9.50;;;;;;;8.29;100.00;100582.72;4979301;28;20050;-67
2022/12/22 11:12:46;;;;;;;23.33;9.70;;;;;;;8.27;100.00;100581.19;4983600;28;20058;-67
2022/12/22 11:15:47;;;;;;;24.92;10.77;;;;;;;8.21;100.00;100587.81;4983223;28;20045;-66
2022/12/22 11:18:37;;;;;;;28.73;12.15;;;;;;;8.20;100.00;100598.38;4980752;28;20062;-67
2022/12/22 11:21:21;;;;;;;30.90;11.43;;;;;;;8.21;100.00;100586.97;4960760;28;20046;-66
2022/12/22 11:24:02;;;;;;;27.05;11.63;;;;;;;8.22;100.00;100589.44;4978456;28;20122;-67
2022/12/22 11:26:51;;;;;;;;;;;;;;;8.22;100.00;100591.25;4987933;28;20086;-67
2022/12/22 11:29:45;;;;;;;28.75;10.82;;;;;;;8.31;100.00;100591.25;4982517;28;19922;-68
2022/12/22 11:32:36;;;;;;;24.52;11.80;;;;;;;8.42;100.00;100589.47;4978171;28;20046;-66
2022/12/22 11:35:15;;;;;;;27.92;12.93;;;;;;;8.37;100.00;100605.56;4986005;28;20042;-68
2022/12/22 11:37:53;;;;;;;31.42;13.85;;;;;;;8.27;100.00;100608.16;4986611;28;20100;-67
2022/12/22 11:40:29;;;;;;;32.55;15.70;;;;;;;8.23;100.00;100605.94;4962639;28;20054;-67
2022/12/22 11:43:09;;;;;;;27.70;13.77;;;;;;;8.34;100.00;100615.44;4997238;28;20054;-67
2022/12/22 11:45:51;;;;;;;28.00;15.88;;;;;;;8.35;100.00;100614.47;4991818;28;20061;-67
2022/12/22 11:48:48;;;;;;;37.05;19.25;;;;;;;8.28;100.00;100612.41;4986681;28;20042;-68
2022/12/22 11:51:56;;;;;;;31.42;16.85;;;;;;;8.37;100.00;100613.41;4986704;28;20050;-69
2022/12/22 11:55:00;;;;;;;36.03;19.52;;;;;;;8.43;100.00;100607.66;4995774;28;20054;-69
2022/12/22 11:57:45;;;;;;;42.70;18.80;;;;;;;8.41;100.00;100606.09;4992710;28;20057;-69
2022/12/22 12:00:14;;;;;;;41.13;17.85;;;;;;;8.55;100.00;100605.72;4991877;28;20402;-67
2022/12/22 12:03:19;;;;;;;;;;;;;;;8.67;100.00;100607.22;4994819;28;20119;-68
2022/12/22 12:06:10;;;;;;;33.25;17.45;;;;;;;8.72;100.00;100604.16;4957030;28;19977;-68
2022/12/22 12:08:58;;;;;;;36.47;17.48;;;;;;;8.83;100.00;100611.06;4953600;28;20260;-69
2022/12/22 12:11:30;;;;;;;33.10;16.33;;;;;;;8.87;100.00;100604.56;4980533;28;20042;-68
2022/12/22 12:14:12;;;;;;;41.85;18.88;;;;;;;8.88;100.00;100599.22;4983503;28;20050;-67
2022/12/22 12:16:45;;;;;;;33.70;16.83;;;;;;;8.88;100.00;100603.63;4992236;28;20114;-68
2022/12/22 12:19:35;;;;;;;32.05;16.40;;;;;;;8.98;100.00;100604.41;4988702;28;20569;-67
2022/12/22 12:22:04;;;;;;;32.53;16.95;;;;;;;9.01;100.00;100604.13;4989917;28;20388;-68
2022/12/22 12:24:49;;;;;;;35.63;17.00;;;;;;;9.08;100.00;100597.38;4994112;28;20457;-67
2022/12/22 12:27:33;;;;;;;23.20;12.65;;;;;;;9.00;100.00;100585.97;4984852;28;20051;-68
2022/12/22 12:30:09;;;;;;;27.23;11.55;;;;;;;9.05;100.00;100591.59;4983707;28;20061;-67
2022/12/22 12:33:22;;;;;;;17.50;10.15;;;;;;;8.99;100.00;100584.31;4998408;28;20121;-68
2022/12/22 12:36:10;;;;;;;22.40;10.35;;;;;;;9.12;100.00;100584.81;4988166;28;20091;-67
2022/12/22 12:38:48;;;;;;;21.27;10.38;;;;;;;9.18;100.00;100589.47;4997482;28;20046;-68
2022/12/22 12:41:51;;;;;;;18.20;9.35;;;;;;;9.13;100.00;100583.03;4982560;28;20473;-67
2022/12/22 12:44:21;;;;;;;16.98;9.02;;;;;;;9.19;100.00;100564.97;4987478;28;20046;-68
2022/12/22 12:46:51;;;;;;;16.33;8.43;;;;;;;9.17;100.00;100572.13;4986167;28;20155;-68
2022/12/22 12:49:41;;;;;;;17.35;8.43;;;;;;;9.20;100.00;100568.41;4998295;28;20054;-68
2022/12/22 12:52:09;;;;;;;21.27;9.45;;;;;;;9.24;100.00;100557.50;4960550;28;20414;-69
2022/12/22 12:54:46;;;;;;;18.85;8.93;;;;;;;9.25;100.00;100564.41;4983762;28;20061;-69
2022/12/22 12:57:23;;;;;;;22.05;10.65;;;;;;;9.15;100.00;100563.59;4979724;28;20500;-69
2022/12/22 12:59:55;;;;;;;18.38;8.98;;;;;;;9.10;100.00;100579.72;4991154;28;20132;-69
2022/12/22 13:02:38;;;;;;;17.10;8.25;;;;;;;9.04;100.00;100576.88;4998224;28;20133;-69
2022/12/22 13:05:11;;;;;;;16.60;8.55;;;;;;;9.04;100.00;100558.56;4987677;28;20130;-69
2022/12/22 13:08:02;;;;;;;14.00;7.28;;;;;;;9.00;100.00;100557.19;4998874;28;20058;-69
2022/12/22 13:10:30;;;;;;;16.45;8.95;;;;;;;8.91;100.00;100558.84;4989133;28;20161;-69
2022/12/22 13:12:57;;;;;;;17.45;7.50;;;;;;;8.90;100.00;100560.66;5002993;28;20054;-69
2022/12/22 13:15:39;;;;;;;15.65;8.77;;;;;;;8.91;100.00;100557.06;4997563;28;20057;-69
2022/12/22 13:18:24;;;;;;;20.00;8.95;;;;;;;8.89;100.00;100563.41;4998653;28;20054;-68
2022/12/22 13:20:59;;;;;;;19.98;11.15;;;;;;;8.84;100.00;100566.47;4991986;28;20442;-68
2022/12/22 13:24:00;;;;;;;23.38;11.07;;;;;;;8.90;100.00;100576.34;4995382;28;20077;-68
2022/12/22 13:26:50;;;;;;;23.17;11.30;;;;;;;8.88;100.00;100573.06;4983753;28;20051;-69
2022/12/22 13:29:46;;;;;;;22.08;13.35;;;;;;;8.91;100.00;100580.59;4992047;28;20054;-68
2022/12/22 13:32:28;;;;;;;24.27;15.65;;;;;;;8.88;100.00;100577.47;4990625;28;20151;-67
2022/12/22 13:35:03;;;;;;;21.52;14.10;;;;;;;8.88;100.00;100582.69;4994244;28;20046;-68
2022/12/22 13:37:52;;;;;;;47.20;26.55;;;;;;;8.93;100.00;100588.31;4971344;28;20177;-64
2022/12/22 13:40:25;;;;;;;25.00;15.27;;;;;;;8.98;100.00;100587.91;4983853;28;20046;-68
2022/12/22 13:43:03;;;;;;;26.58;15.07;;;;;;;9.01;100.00;100592.84;4990526;28;20145;-69
2022/12/22 13:45:40;;;;;;;26.38;14.85;;;;;;;9.06;100.00;100593.25;4984888;28;20046;-69
2022/12/22 13:48:31;;;;;;;32.50;16.38;;;;;;;9.07;100.00;100595.69;4992897;28;20086;-69
2022/12/22 13:51:12;;;;;;;26.55;16.15;;;;;;;9.00;100.00;100581.56;4983402;28;20133;-68
2022/12/22 13:53:46;;;;;;;25.90;16.00;;;;;;;9.03;100.00;100586.50;4991789;28;20425;-66
2022/12/22 13:57:06;;;;;;;30.75;17.40;;;;;;;9.02;100.00;100590.09;4988438;28;20045;-67
2022/12/22 13:59:38;;;;;;;28.48;16.80;;;;;;;9.01;100.00;100583.19;4997567;28;20050;-67
2022/12/22 14:02:07;;;;;;;31.05;17.42;;;;;;;9.04;100.00;100579.47;4983975;28;20426;-67
2022/12/22 14:04:36;;;;;;;31.42;18.25;;;;;;;9.00;100.00;100573.72;4985401;28;20054;-67
2022/12/22 14:07:12;;;;;;;30.05;17.52;;;;;;;9.04;100.00;100571.63;4980790;28;20050;-66
2022/12/22 14:09:57;;;;;;;31.50;18.85;;;;;;;9.01;100.00;100566.69;4984357;28;20061;-66
2022/12/22 14:12:27;;;;;;;33.38;19.13;;;;;;;8.97;100.00;100565.31;4986623;28;20052;-66
2022/12/22 14:14:55;;;;;;;32.22;18.95;;;;;;;8.93;100.00;100553.47;4971968;28;20073;-66
2022/12/22 14:17:27;;;;;;;31.92;17.83;;;;;;;9.00;100.00;100550.16;4983288;28;20050;-66
2022/12/22 14:20:13;;;;;;;33.33;18.65;;;;;;;8.97;100.00;100554.84;4989577;28;20050;-66
2022/12/22 14:23:05;;;;;;;35.30;19.60;;;;;;;8.97;100.00;100554.84;4994780;28;20050;-67
2022/12/22 14:25:35;;;;;;;33.08;19.55;;;;;;;8.95;100.00;100551.56;4983606;28;20089;-67
2022/12/22 14:28:05;;;;;;;35.17;19.77;;;;;;;8.92;100.00;100550.06;4995251;28;20070;-67
2022/12/22 14:30:36;;;;;;;33.35;19.52;;;;;;;8.99;100.00;100552.91;4980405;28;20097;-66
2022/12/22 14:33:22;;;;;;;33.70;19.48;;;;;;;9.04;100.00;100550.72;4995310;28;20058;-67
2022/12/22 14:35:49;;;;;;;35.15;20.45;;;;;;;8.96;100.00;100546.19;4985542;28;20046;-66
2022/12/22 14:38:21;;;;;;;32.70;19.52;;;;;;;9.00;100.00;100552.78;4990396;28;20051;-66
2022/12/22 14:40:49;;;;;;;33.08;18.35;;;;;;;8.95;100.00;100535.84;4988800;28;20054;-66
2022/12/22 14:43:27;;;;;;;31.58;19.88;;;;;;;8.98;100.00;100540.81;4983457;28;20108;-66
2022/12/22 14:46:04;;;;;;;31.90;19.65;;;;;;;8.97;100.00;100534.72;4984564;28;20407;-66
2022/12/22 14:48:44;;;;;;;34.67;20.17;;;;;;;8.93;100.00;100528.16;4992737;28;20054;-66
2022/12/22 14:51:16;;;;;;;31.35;19.25;;;;;;;8.96;100.00;100532.25;4968943;28;20145;-66
2022/12/22 14:53:47;;;;;;;28.05;18.40;;;;;;;8.96;100.00;100516.56;4986251;28;20065;-67
2022/12/22 14:56:16;;;;;;;32.17;18.83;;;;;;;8.98;100.00;100520.72;4991460;28;20603;-66
2022/12/22 14:58:44;;;;;;;32.17;18.88;;;;;;;9.00;100.00;100524.00;4986870;28;20122;-66
2022/12/22 15:01:19;;;;;;;32.90;19.43;;;;;;;9.02;100.00;100523.88;4991008;28;20069;-66
2022/12/22 15:04:16;;;;;;;30.75;19.45;;;;;;;9.01;100.00;100515.16;4970962;28;20043;-67
2022/12/22 15:06:44;;;;;;;34.53;19.77;;;;;;;9.00;100.00;100516.16;4975750;28;20042;-66
2022/12/22 15:09:14;;;;;;;31.85;18.00;;;;;;;9.04;100.00;100517.50;4993427;28;20046;-67